CheckWX is a tool to help pilots better visualize weather data.  It is not intended as a substitute for an official pre-flight weather briefing.

08:04:57 UTC

VCRI TAF
Mattala Rajapaksa International Airport
Sri Lanka
TAF VCRI 190500Z 1906/2012 06010G20KT 9999 SCT018 TX34/1908Z TN23/2000Z TEMPO 1909/1916 8000 -TSRA/SHRA SCT016 FEW020CB BKN080 BECMG 1914/1916 03005KT BECMG 2004/2006 08010G20KT

Mar-19@
06:00 UTC

Mar-19 @ 06:00 UTC

Mar-19@
14:00 UTC

Mar-19 @ 14:00 UTC

TAF VCRI 190500Z 1906/2012 06010G20KT 9999 SCT018 TX34/1908Z TN23/2000Z
Wind
  • 060° at 10 KTS
  • {Gusting to 20 KTS
Cloud Levels
  • Scattered at 1,800' AGL

Mar-19@
09:00 UTC

Mar-19 @ 09:00 UTC

Mar-19@
16:00 UTC

Mar-19 @ 16:00 UTC

TEMPO 1909/1916 8000 -TSRA/SHRA SCT016 FEW020CB BKN080

Temporary

Temporary Changes expected for less than half the time period

Conditions
Rain, Light Thunderstorm, Light Rain
Cloud Levels
  • Scattered at 1,600' AGL
  • Few at 2,000' AGL
  • Broken at 8,000' AGL

Mar-19@
14:00 UTC

Mar-19 @ 14:00 UTC

Mar-20@
04:00 UTC

Mar-20 @ 04:00 UTC

BECMG 1914/1916 03005KT

Becoming

Becoming Conditions expected by Tue, Mar 19, 2019 @ 16:00 UTC

Wind
  • 030° at 5 KTS
Cloud Levels
  • Scattered at 1,800' AGL

Mar-20@
04:00 UTC

Mar-20 @ 04:00 UTC

Mar-20@
12:00 UTC

Mar-20 @ 12:00 UTC

BECMG 2004/2006 08010G20KT

Becoming

Becoming Conditions expected by Wed, Mar 20, 2019 @ 06:00 UTC

Wind
  • 080° at 10 KTS
  • {Gusting to 20 KTS
Cloud Levels
  • Scattered at 1,800' AGL